Time;durP1;ratioP1;P1;durP2;ratioP2;P2;SDS_P1;SDS_P2;PMS_P1;PMS_P2;Temp;Humidity;BMP_temperature;BMP_pressure;BME280_temperature;BME280_humidity;BME280_pressure;Samples;Min_cycle;Max_cycle;Signal;HPM_P1;HPM_P2
2023/06/06 00:02:04;;;;;;;14.40;9.97;;;14.60;99.90;;;;;;5095772;28;20175;-74
2023/06/06 00:04:29;;;;;;;16.50;10.30;;;14.50;99.90;;;;;;5095356;28;20172;-74
2023/06/06 00:06:56;;;;;;;13.67;10.07;;;14.40;99.90;;;;;;5095447;28;20172;-74
2023/06/06 00:09:22;;;;;;;16.37;10.40;;;14.30;99.90;;;;;;5095334;28;20171;-73
2023/06/06 00:11:48;;;;;;;12.33;10.03;;;14.30;99.90;;;;;;5095499;28;20172;-73
2023/06/06 00:14:18;;;;;;;14.83;10.60;;;14.30;99.90;;;;;;5095289;28;20251;-73
2023/06/06 00:16:48;;;;;;;16.50;9.90;;;14.20;99.90;;;;;;5095308;28;20176;-74
2023/06/06 00:19:20;;;;;;;13.93;10.20;;;14.20;99.90;;;;;;5094788;28;20645;-74
2023/06/06 00:21:46;;;;;;;15.97;10.90;;;14.20;99.90;;;;;;5095076;28;20176;-74
2023/06/06 00:24:12;;;;;;;13.73;10.27;;;14.20;99.90;;;;;;5095207;28;20626;-74
2023/06/06 00:26:38;;;;;;;14.53;10.70;;;14.10;99.90;;;;;;5095014;28;20168;-75
2023/06/06 00:29:03;;;;;;;14.50;10.30;;;14.10;99.90;;;;;;5095279;28;20655;-74
2023/06/06 00:31:30;;;;;;;15.90;10.17;;;14.00;99.90;;;;;;5095095;28;20663;-74
2023/06/06 00:33:55;;;;;;;14.93;10.13;;;13.90;99.90;;;;;;5094469;28;20223;-74
2023/06/06 00:36:21;;;;;;;14.73;10.20;;;13.90;99.90;;;;;;5094908;28;20615;-75
2023/06/06 00:38:47;;;;;;;16.57;10.60;;;13.90;99.90;;;;;;5094917;28;20176;-75
2023/06/06 00:41:13;;;;;;;17.77;10.53;;;13.80;99.90;;;;;;5095070;28;20255;-74
2023/06/06 00:43:39;;;;;;;16.17;10.30;;;13.80;99.90;;;;;;5094975;28;20183;-74
2023/06/06 00:46:04;;;;;;;17.37;10.47;;;13.80;99.90;;;;;;5094591;28;20707;-74
2023/06/06 00:48:30;;;;;;;15.00;10.27;;;13.90;99.90;;;;;;5094052;28;20191;-74
2023/06/06 00:50:56;;;;;;;16.67;10.10;;;13.80;99.90;;;;;;5094580;28;20664;-75
2023/06/06 00:53:21;;;;;;;14.47;10.20;;;13.70;99.90;;;;;;5094598;28;20172;-75
2023/06/06 00:55:47;;;;;;;14.40;10.10;;;13.70;99.90;;;;;;5094564;28;20192;-76
2023/06/06 00:58:13;;;;;;;16.07;10.87;;;13.60;99.90;;;;;;5094550;28;20195;-74
2023/06/06 01:00:40;;;;;;;15.67;10.40;;;13.60;99.90;;;;;;5094406;28;20562;-74
2023/06/06 01:03:09;;;;;;;14.50;9.73;;;13.60;99.90;;;;;;5094116;28;20202;-74
2023/06/06 01:05:38;;;;;;;17.20;10.57;;;13.50;99.90;;;;;;5094226;28;20641;-73
2023/06/06 01:08:04;;;;;;;17.07;11.73;;;13.50;99.90;;;;;;5094158;28;20314;-73
2023/06/06 01:10:31;;;;;;;15.53;10.43;;;13.50;99.90;;;;;;5093989;28;20559;-74
2023/06/06 01:13:20;;;;;;;13.40;10.60;;;13.50;99.90;;;;;;5094328;28;20653;-75
2023/06/06 01:15:52;;;;;;;15.73;10.97;;;13.50;99.90;;;;;;5094229;28;20179;-73
2023/06/06 01:18:19;;;;;;;16.40;11.03;;;13.40;99.90;;;;;;5094154;28;20172;-74
2023/06/06 01:20:45;;;;;;;16.80;10.60;;;13.40;99.90;;;;;;5093811;28;20176;-75
2023/06/06 01:23:12;;;;;;;28.07;11.37;;;13.40;99.90;;;;;;5093961;28;20186;-73
2023/06/06 01:25:40;;;;;;;18.53;11.23;;;13.40;99.90;;;;;;5094037;28;20236;-73
2023/06/06 01:28:12;;;;;;;24.17;11.37;;;13.30;99.90;;;;;;5093796;28;20645;-73
2023/06/06 01:30:40;;;;;;;22.67;11.67;;;13.30;99.90;;;;;;5093974;28;20215;-75
2023/06/06 01:33:41;;;;;;;18.20;11.10;;;13.30;99.90;;;;;;5093510;28;20202;-74
2023/06/06 01:36:13;;;;;;;19.87;11.63;;;13.30;99.90;;;;;;5093833;28;20692;-73
2023/06/06 01:38:44;;;;;;;17.70;11.43;;;13.30;99.90;;;;;;5094399;28;20203;-75
2023/06/06 01:41:12;;;;;;;15.20;10.97;;;13.30;99.90;;;;;;5093886;28;20180;-72
2023/06/06 01:43:40;;;;;;;15.23;11.00;;;13.20;99.90;;;;;;5093795;28;20176;-72
2023/06/06 01:46:08;;;;;;;12.70;10.10;;;13.20;99.90;;;;;;5093250;28;20226;-73
2023/06/06 01:48:35;;;;;;;14.57;10.63;;;13.10;99.90;;;;;;5093898;28;20264;-73
2023/06/06 01:51:01;;;;;;;15.53;11.43;;;13.00;99.90;;;;;;5093549;28;20214;-74
2023/06/06 01:53:27;;;;;;;15.70;11.43;;;12.90;99.90;;;;;;5092392;28;20692;-74
2023/06/06 01:55:54;;;;;;;20.80;11.97;;;13.00;99.90;;;;;;5093578;28;20206;-73
2023/06/06 01:58:20;;;;;;;20.00;11.07;;;12.90;99.90;;;;;;5093304;28;20176;-73
2023/06/06 02:00:45;;;;;;;16.90;11.43;;;12.90;99.90;;;;;;5093134;28;20211;-73
2023/06/06 02:03:11;;;;;;;32.50;13.57;;;12.90;99.90;;;;;;5093434;28;20204;-72
2023/06/06 02:05:37;;;;;;;19.70;11.27;;;12.80;99.90;;;;;;5093429;28;20170;-73
2023/06/06 02:08:03;;;;;;;16.63;11.70;;;12.80;99.90;;;;;;5093426;28;20175;-72
2023/06/06 02:10:29;;;;;;;18.37;11.50;;;12.80;99.90;;;;;;5093217;28;20207;-73
2023/06/06 02:12:55;;;;;;;20.47;11.63;;;12.90;99.90;;;;;;5093185;28;20247;-73
2023/06/06 02:15:21;;;;;;;17.80;10.90;;;12.90;99.90;;;;;;5093015;28;20635;-73
2023/06/06 02:17:46;;;;;;;20.40;12.03;;;12.80;99.90;;;;;;5093048;28;20174;-72
2023/06/06 02:20:12;;;;;;;20.70;11.73;;;12.70;99.90;;;;;;5093371;28;20168;-74
2023/06/06 02:22:38;;;;;;;21.20;11.73;;;12.70;99.90;;;;;;5093568;28;20171;-73
2023/06/06 02:25:05;;;;;;;18.47;10.97;;;12.70;99.90;;;;;;5093256;28;20168;-72
2023/06/06 02:27:32;;;;;;;18.77;11.90;;;12.60;99.90;;;;;;5091868;28;20554;-73
2023/06/06 02:29:58;;;;;;;18.97;12.53;;;12.70;99.90;;;;;;5092838;28;20286;-72
2023/06/06 02:32:24;;;;;;;19.90;12.07;;;12.60;99.90;;;;;;5093274;28;20662;-73
2023/06/06 02:34:50;;;;;;;22.50;12.70;;;12.60;99.90;;;;;;5092728;28;20701;-74
2023/06/06 02:37:16;;;;;;;18.53;11.13;;;12.60;99.90;;;;;;5093159;28;20196;-72
2023/06/06 02:39:41;;;;;;;18.07;12.53;;;12.60;99.90;;;;;;5093280;28;20203;-73
2023/06/06 02:42:07;;;;;;;16.73;12.00;;;12.60;99.90;;;;;;5092982;28;20168;-73
2023/06/06 02:44:33;;;;;;;18.13;12.03;;;12.60;99.90;;;;;;5092743;28;20213;-73
2023/06/06 02:46:59;;;;;;;18.97;11.97;;;12.60;99.90;;;;;;5092999;28;20199;-72
2023/06/06 02:49:27;;;;;;;21.53;12.63;;;12.60;99.90;;;;;;5092926;28;20204;-73
2023/06/06 02:51:53;;;;;;;19.73;12.53;;;12.50;99.90;;;;;;5093233;28;20183;-74
2023/06/06 02:54:18;;;;;;;18.10;12.30;;;12.50;99.90;;;;;;5093157;28;20182;-73
2023/06/06 02:56:44;;;;;;;19.33;12.30;;;12.40;99.90;;;;;;5092693;28;20164;-73
2023/06/06 02:59:10;;;;;;;22.17;12.70;;;12.50;99.90;;;;;;5092645;28;20172;-73
2023/06/06 03:01:36;;;;;;;19.67;12.63;;;12.40;99.90;;;;;;5093039;28;20241;-73
2023/06/06 03:04:03;;;;;;;19.50;12.20;;;12.30;99.90;;;;;;5092914;28;20262;-74
2023/06/06 03:06:29;;;;;;;19.87;12.07;;;12.30;99.90;;;;;;5092769;28;20179;-74
2023/06/06 03:08:57;;;;;;;18.20;11.97;;;12.30;99.90;;;;;;5092835;28;20164;-73
2023/06/06 03:11:25;;;;;;;21.17;12.57;;;12.30;99.90;;;;;;5095679;28;20211;-73
2023/06/06 03:13:51;;;;;;;18.17;11.57;;;12.30;99.90;;;;;;5096168;28;20176;-74
2023/06/06 03:16:16;;;;;;;21.20;12.30;;;12.20;99.90;;;;;;5096458;28;20280;-72
2023/06/06 03:18:46;;;;;;;21.33;12.73;;;12.30;99.90;;;;;;5096295;28;20736;-73
2023/06/06 03:21:12;;;;;;;16.60;11.57;;;12.30;99.90;;;;;;5096081;28;20679;-73
2023/06/06 03:23:38;;;;;;;18.30;11.87;;;12.20;99.90;;;;;;5096226;28;20172;-75
2023/06/06 03:26:04;;;;;;;22.20;13.00;;;12.20;99.90;;;;;;5096186;28;20207;-73
2023/06/06 03:28:31;;;;;;;20.10;12.10;;;12.20;99.90;;;;;;5095907;28;20627;-73
2023/06/06 03:30:57;;;;;;;18.50;12.77;;;12.20;99.90;;;;;;5095952;28;20211;-73
2023/06/06 03:33:23;;;;;;;18.07;11.63;;;12.20;99.90;;;;;;5095557;28;20222;-73
2023/06/06 03:35:48;;;;;;;19.73;12.83;;;12.10;99.90;;;;;;5095815;28;20172;-73
2023/06/06 03:38:14;;;;;;;20.30;12.60;;;12.10;99.90;;;;;;5096023;28;20164;-72
2023/06/06 03:40:40;;;;;;;16.43;11.57;;;12.10;99.90;;;;;;5095381;28;20175;-73
2023/06/06 03:43:05;;;;;;;23.03;12.60;;;12.10;99.90;;;;;;5095726;28;20550;-73
2023/06/06 03:45:31;;;;;;;18.47;11.97;;;12.10;99.90;;;;;;5095920;28;20172;-73
2023/06/06 03:47:57;;;;;;;23.17;12.17;;;12.00;99.90;;;;;;5095478;28;20714;-73
2023/06/06 03:50:22;;;;;;;20.83;12.40;;;12.10;99.90;;;;;;5095606;28;20211;-74
2023/06/06 03:52:48;;;;;;;18.20;12.00;;;12.20;99.90;;;;;;5095425;28;20187;-74
2023/06/06 03:55:14;;;;;;;17.97;11.80;;;12.30;99.90;;;;;;5095307;28;20196;-72
2023/06/06 03:57:40;;;;;;;18.17;12.17;;;12.40;99.90;;;;;;5093775;28;20168;-75
2023/06/06 04:00:13;;;;;;;16.33;11.43;;;12.50;99.90;;;;;;5095485;28;20164;-74
2023/06/06 04:02:42;;;;;;;16.60;11.47;;;12.70;99.90;;;;;;5095450;28;20172;-74
2023/06/06 04:05:09;;;;;;;18.47;12.10;;;12.90;99.90;;;;;;5095565;28;20698;-73
2023/06/06 04:07:35;;;;;;;18.07;11.43;;;12.90;99.90;;;;;;5094959;28;20175;-73
2023/06/06 04:10:02;;;;;;;21.53;12.30;;;13.00;99.90;;;;;;5094904;28;20280;-74
2023/06/06 04:12:28;;;;;;;17.83;11.57;;;13.10;99.90;;;;;;5094523;28;20192;-75
2023/06/06 04:14:54;;;;;;;15.83;11.47;;;13.10;99.90;;;;;;5094722;28;20233;-74
2023/06/06 04:17:20;;;;;;;14.57;10.73;;;13.40;99.90;;;;;;5095064;28;20168;-74
2023/06/06 04:19:47;;;;;;;15.17;11.00;;;13.60;99.90;;;;;;5095043;28;20164;-74
2023/06/06 04:22:14;;;;;;;15.47;11.00;;;13.80;99.90;;;;;;5093733;28;20184;-74
2023/06/06 04:24:40;;;;;;;16.90;11.03;;;14.00;99.90;;;;;;5094640;28;20191;-74
2023/06/06 04:27:06;;;;;;;14.20;10.57;;;14.30;99.90;;;;;;5094383;28;20176;-73
2023/06/06 04:29:33;;;;;;;16.80;10.97;;;14.70;95.40;;;;;;5094858;28;20711;-74
2023/06/06 04:32:00;;;;;;;15.43;10.87;;;14.90;81.00;;;;;;5094514;28;20184;-74
2023/06/06 04:34:29;;;;;;;16.90;10.73;;;15.10;73.10;;;;;;5093817;28;20563;-74
2023/06/06 04:37:03;;;;;;;15.47;10.63;;;15.20;59.00;;;;;;5094337;28;20191;-74
2023/06/06 04:39:35;;;;;;;12.57;10.30;;;15.50;58.70;;;;;;5094665;28;20183;-74
2023/06/06 04:42:02;;;;;;;16.77;10.93;;;15.90;45.50;;;;;;5094356;28;20178;-73
2023/06/06 04:44:28;;;;;;;16.00;10.00;;;16.20;32.00;;;;;;5094371;28;20172;-73
2023/06/06 04:47:00;;;;;;;14.43;10.87;;;16.70;21.10;;;;;;5094326;28;20164;-75
2023/06/06 04:49:35;;;;;;;13.63;10.40;;;16.80;10.80;;;;;;5093910;28;20897;-74
2023/06/06 04:52:08;;;;;;;20.57;10.70;;;16.30;24.80;;;;;;5094090;28;20266;-73
2023/06/06 04:54:37;;;;;;;18.50;11.43;;;16.90;19.70;;;;;;5093648;28;20200;-74
2023/06/06 04:57:05;;;;;;;18.87;10.50;;;16.80;8.90;;;;;;5094239;28;20208;-75
2023/06/06 04:59:32;;;;;;;18.13;10.70;;;17.30;1.00;;;;;;5093874;28;20214;-75
2023/06/06 05:01:58;;;;;;;17.70;10.27;;;17.80;1.00;;;;;;5094183;28;20188;-74
2023/06/06 05:04:24;;;;;;;16.97;10.70;;;18.20;1.00;;;;;;5094036;28;20222;-75
2023/06/06 05:06:50;;;;;;;13.93;10.23;;;18.60;1.00;;;;;;5093440;28;20642;-75
2023/06/06 05:09:16;;;;;;;12.53;10.53;;;18.40;1.00;;;;;;5093728;28;20187;-75
2023/06/06 05:11:48;;;;;;;12.53;9.63;;;18.10;1.00;;;;;;5093453;28;20724;-74
2023/06/06 05:14:13;;;;;;;16.47;11.27;;;17.50;1.00;;;;;;5092965;28;20216;-74
2023/06/06 05:16:39;;;;;;;14.70;10.60;;;17.00;1.00;;;;;;5093145;28;20179;-74
2023/06/06 05:19:05;;;;;;;16.13;10.60;;;16.80;1.00;;;;;;5093416;28;20180;-73
2023/06/06 05:21:33;;;;;;;15.17;10.50;;;16.70;3.40;;;;;;5093365;28;20168;-74
2023/06/06 05:23:58;;;;;;;18.87;11.07;;;17.10;1.00;;;;;;5093317;28;20305;-75
2023/06/06 05:26:25;;;;;;;18.77;10.90;;;17.70;1.00;;;;;;5093343;28;20221;-74
2023/06/06 05:28:51;;;;;;;17.13;10.93;;;17.50;1.00;;;;;;5093470;28;20186;-75
2023/06/06 05:31:20;;;;;;;16.43;10.90;;;18.00;1.00;;;;;;5092645;28;20203;-74
2023/06/06 05:33:46;;;;;;;13.68;10.15;;;17.60;1.00;;;;;;5092803;28;20224;-75
2023/06/06 05:36:13;;;;;;;13.98;10.40;;;17.80;1.00;;;;;;5093742;28;20175;-76
2023/06/06 05:38:38;;;;;;;13.57;10.17;;;18.20;1.00;;;;;;5092486;28;20160;-75
2023/06/06 05:41:04;;;;;;;14.23;9.88;;;18.80;1.00;;;;;;5091877;28;20573;-76
2023/06/06 05:43:33;;;;;;;15.52;10.13;;;19.20;1.00;;;;;;5093277;28;20172;-75
2023/06/06 05:46:00;;;;;;;17.02;9.63;;;19.20;1.00;;;;;;5092812;28;20276;-77
2023/06/06 05:48:26;;;;;;;12.80;10.07;;;19.30;1.00;;;;;;5092745;28;20164;-76
2023/06/06 05:50:52;;;;;;;16.75;9.93;;;18.70;1.00;;;;;;5092875;28;20230;-75
2023/06/06 05:53:17;;;;;;;16.50;9.73;;;19.20;1.00;;;;;;5092398;28;20172;-77
2023/06/06 05:55:43;;;;;;;13.38;9.75;;;20.00;1.00;;;;;;5090329;28;20291;-76
2023/06/06 05:58:09;;;;;;;13.55;10.30;;;19.90;1.00;;;;;;5092010;28;20164;-76
2023/06/06 06:00:35;;;;;;;17.40;9.40;;;20.20;1.00;;;;;;5092743;28;20252;-76
2023/06/06 06:03:01;;;;;;;13.32;9.98;;;19.60;1.00;;;;;;5092537;28;20179;-76
2023/06/06 06:05:28;;;;;;;17.00;9.85;;;20.00;1.00;;;;;;5092900;28;20175;-77
2023/06/06 06:08:01;;;;;;;13.07;9.50;;;19.90;1.00;;;;;;5092003;28;20646;-75
2023/06/06 06:10:31;;;;;;;13.35;10.23;;;19.00;1.00;;;;;;5090602;28;20749;-75
2023/06/06 06:12:57;;;;;;;14.30;9.80;;;18.60;1.00;;;;;;5092487;28;20168;-76
2023/06/06 06:15:23;;;;;;;14.82;10.57;;;18.40;1.00;;;;;;5092339;28;20221;-75
2023/06/06 06:17:49;;;;;;;12.80;10.02;;;19.40;1.00;;;;;;5092582;28;20164;-76
2023/06/06 06:20:16;;;;;;;14.55;10.07;;;19.80;1.00;;;;;;5092298;28;20187;-77
2023/06/06 06:22:42;;;;;;;12.48;10.35;;;20.40;1.00;;;;;;5091599;28;20172;-76
2023/06/06 06:25:12;;;;;;;16.75;9.65;;;20.50;1.00;;;;;;5091880;28;20190;-78
2023/06/06 06:27:38;;;;;;;15.55;10.13;;;20.70;1.00;;;;;;5091926;28;20266;-78
2023/06/06 06:30:04;;;;;;;14.13;9.55;;;21.30;1.00;;;;;;5091631;28;20258;-77
2023/06/06 06:32:34;;;;;;;12.93;10.10;;;22.20;99.90;;;;;;5085496;28;20187;-78
2023/06/06 06:35:01;;;;;;;17.25;9.93;;;22.80;1.00;;;;;;5076320;28;20231;-74
2023/06/06 06:37:29;;;;;;;15.43;10.13;;;22.30;1.00;;;;;;5087879;28;20546;-74
2023/06/06 06:39:58;;;;;;;16.42;9.90;;;22.00;99.90;;;;;;5071335;28;20177;-77
2023/06/06 06:42:25;;;;;;;15.85;10.45;;;21.60;99.90;;;;;;5072085;28;20230;-75
2023/06/06 06:44:51;;;;;;;16.55;10.85;;;20.90;1.00;;;;;;5070228;28;20717;-73
2023/06/06 06:47:17;;;;;;;15.10;10.38;;;21.90;99.90;;;;;;5089614;28;20630;-74
2023/06/06 06:49:43;;;;;;;12.43;9.88;;;22.60;99.90;;;;;;5094628;28;20182;-74
2023/06/06 06:52:15;;;;;;;14.18;10.32;;;23.10;1.00;;;;;;5095025;28;20207;-71
2023/06/06 06:54:59;;;;;;;18.80;10.30;;;22.90;45.20;;;;;;5094654;28;20202;-77
2023/06/06 06:57:28;;;;;;;14.68;10.65;;;23.00;99.90;;;;;;5095951;28;20232;-74
2023/06/06 06:59:57;;;;;;;13.38;10.10;;;23.30;1.00;;;;;;5094450;28;20168;-75
2023/06/06 07:02:26;;;;;;;13.70;10.02;;;24.10;1.00;;;;;;5095555;28;20172;-74
2023/06/06 07:04:59;;;;;;;16.60;9.48;;;23.20;1.00;;;;;;5094444;28;20172;-74
2023/06/06 07:07:25;;;;;;;15.48;10.23;;;23.50;99.90;;;;;;5095775;28;20261;-74
2023/06/06 07:09:51;;;;;;;11.95;10.48;;;23.10;1.00;;;;;;5095102;28;20275;-76
2023/06/06 07:12:17;;;;;;;14.00;10.48;;;24.60;99.90;;;;;;5094740;28;20490;-72
2023/06/06 07:14:43;;;;;;;12.95;10.60;;;25.40;99.90;;;;;;5086336;28;20266;-73
2023/06/06 07:17:08;;;;;;;12.70;9.98;;;24.80;1.00;;;;;;5075675;28;20165;-71
2023/06/06 07:19:35;;;;;;;11.35;9.70;;;24.60;1.00;;;;;;5090194;28;20176;-79
2023/06/06 07:22:04;;;;;;;13.00;10.85;;;24.00;49.70;;;;;;5098911;28;20163;-75
2023/06/06 07:24:30;;;;;;;17.55;11.45;;;24.10;99.90;;;;;;5112386;28;20207;-72
2023/06/06 07:26:57;;;;;;;12.85;10.65;;;24.10;1.00;;;;;;5102252;28;20202;-75
2023/06/06 07:29:23;;;;;;;14.98;10.75;;;24.90;1.00;;;;;;5101943;28;20262;-73
2023/06/06 07:31:50;;;;;;;13.85;10.20;;;25.80;1.00;;;;;;5081135;28;20748;-73
2023/06/06 07:34:15;;;;;;;12.65;9.75;;;25.00;1.00;;;;;;5084047;28;20226;-72
2023/06/06 07:36:41;;;;;;;13.98;10.02;;;25.50;5.70;;;;;;5090552;28;20678;-74
2023/06/06 07:39:07;;;;;;;12.90;10.60;;;25.70;39.50;;;;;;5093018;28;20628;-74
2023/06/06 07:41:33;;;;;;;11.85;10.65;;;25.80;1.00;;;;;;5074116;28;20176;-71
2023/06/06 07:44:01;;;;;;;13.02;10.65;;;24.70;99.90;;;;;;5090951;28;20400;-73
2023/06/06 07:46:27;;;;;;;11.70;10.00;;;25.90;1.00;;;;;;5076669;28;20227;-70
2023/06/06 07:48:53;;;;;;;13.18;10.80;;;25.70;78.60;;;;;;5085150;28;20670;-74
2023/06/06 07:51:19;;;;;;;11.75;10.48;;;26.20;1.00;;;;;;5080500;28;20212;-74
2023/06/06 07:53:44;;;;;;;18.92;11.57;;;27.30;99.90;;;;;;5096984;28;20271;-75
2023/06/06 07:56:13;;;;;;;17.02;11.15;;;28.20;1.00;;;;;;5089016;28;20267;-78
2023/06/06 07:58:51;;;;;;;13.82;10.20;;;28.30;1.00;;;;;;5077074;28;21185;-73
2023/06/06 08:01:19;;;;;;;18.35;11.25;;;29.20;1.00;;;;;;5076364;28;20179;-73
2023/06/06 08:03:49;;;;;;;13.70;10.10;;;29.50;1.00;;;;;;5085657;28;20255;-74
2023/06/06 08:06:17;;;;;;;12.70;9.95;;;28.90;99.90;;;;;;5088748;28;20202;-75
2023/06/06 08:08:43;;;;;;;17.15;10.38;;;30.20;99.90;;;;;;5087028;28;20180;-74
2023/06/06 08:11:09;;;;;;;14.48;10.45;;;31.00;99.90;;;;;;5069100;28;20346;-75
2023/06/06 08:13:35;;;;;;;12.88;10.30;;;30.80;99.90;;;;;;5072477;28;20176;-73
2023/06/06 08:16:00;;;;;;;15.43;10.57;;;28.00;1.00;;;;;;5074025;28;20666;-73
2023/06/06 08:18:26;;;;;;;12.65;10.55;;;26.50;99.90;;;;;;5090718;28;20675;-75
2023/06/06 08:21:01;;;;;;;15.73;10.60;;;26.00;1.00;;;;;;5093838;28;20176;-73
2023/06/06 08:23:26;;;;;;;12.38;10.80;;;25.80;99.90;;;;;;5092389;28;20250;-74
2023/06/06 08:25:55;;;;;;;17.27;11.15;;;25.60;1.00;;;;;;5093783;28;20250;-72
2023/06/06 08:28:26;;;;;;;12.10;10.55;;;25.60;1.00;;;;;;5093126;28;20505;-72
2023/06/06 08:30:53;;;;;;;15.40;11.02;;;25.20;1.00;;;;;;5090457;28;20212;-73
2023/06/06 08:33:19;;;;;;;17.23;11.20;;;24.90;1.00;;;;;;5092054;28;20175;-71
2023/06/06 08:35:46;;;;;;;14.10;11.15;;;26.30;99.90;;;;;;5091706;28;20190;-71
2023/06/06 08:38:12;;;;;;;18.92;11.30;;;25.70;1.00;;;;;;5073777;28;20171;-72
2023/06/06 08:40:38;;;;;;;13.50;10.50;;;26.40;99.90;;;;;;5073801;28;20172;-72
2023/06/06 08:43:06;;;;;;;13.40;10.82;;;26.80;1.00;;;;;;5073774;28;20194;-73
2023/06/06 08:45:33;;;;;;;22.17;11.02;;;26.70;1.00;;;;;;5073413;28;20183;-72
2023/06/06 08:47:58;;;;;;;13.88;10.93;;;26.40;99.90;;;;;;5081878;28;20631;-72
2023/06/06 08:50:26;;;;;;;16.58;11.07;;;26.30;1.00;;;;;;5092118;28;20211;-72
2023/06/06 08:52:52;;;;;;;17.38;11.32;;;27.00;1.00;;;;;;5080535;28;20285;-73
2023/06/06 08:55:18;;;;;;;16.63;11.07;;;26.90;1.00;;;;;;5073328;28;20223;-72
2023/06/06 08:57:47;;;;;;;16.50;10.60;;;27.20;99.90;;;;;;5076450;28;20256;-73
2023/06/06 09:00:21;;;;;;;12.60;10.38;;;28.70;1.00;;;;;;5082200;28;20679;-73
2023/06/06 09:02:51;;;;;;;14.52;11.35;;;29.60;1.00;;;;;;5074756;28;20723;-73
2023/06/06 09:05:19;;;;;;;15.45;10.77;;;30.40;99.90;;;;;;5073134;28;20649;-72
2023/06/06 09:07:51;;;;;;;18.15;11.05;;;30.60;99.90;;;;;;5072288;28;20176;-74
2023/06/06 09:10:17;;;;;;;12.85;10.85;;;30.70;99.90;;;;;;5072865;28;20204;-72
2023/06/06 09:12:45;;;;;;;19.20;11.30;;;30.30;99.90;;;;;;5080762;28;20653;-73
2023/06/06 09:15:11;;;;;;;16.75;11.73;;;29.60;99.90;;;;;;5085520;28;20620;-74
2023/06/06 09:17:42;;;;;;;14.30;10.77;;;29.10;1.00;;;;;;5081182;28;20179;-74
2023/06/06 09:20:10;;;;;;;12.43;10.63;;;29.00;1.00;;;;;;5091207;28;20179;-74
2023/06/06 09:22:43;;;;;;;13.88;11.23;;;29.10;1.00;;;;;;5093389;28;20183;-74
2023/06/06 09:25:29;;;;;;;15.52;10.65;;;29.50;1.00;;;;;;5075454;28;20181;-75
2023/06/06 09:28:02;;;;;;;15.13;11.20;;;29.80;1.00;;;;;;5072441;28;20175;-76
2023/06/06 09:30:30;;;;;;;13.27;10.57;;;28.10;1.00;;;;;;5071426;28;20663;-75
2023/06/06 09:32:58;;;;;;;11.85;10.60;;;28.10;99.90;;;;;;5072028;28;20185;-75
2023/06/06 09:35:29;;;;;;;11.82;10.63;;;29.20;1.00;;;;;;5073696;28;20227;-74
2023/06/06 09:37:54;;;;;;;11.80;10.45;;;29.90;1.00;;;;;;5065416;28;20180;-74
2023/06/06 09:40:21;;;;;;;15.68;10.77;;;29.80;1.00;;;;;;5071326;28;20686;-70
2023/06/06 09:42:48;;;;;;;14.02;10.38;;;28.90;1.00;;;;;;5073827;28;20184;-72
2023/06/06 09:45:19;;;;;;;12.45;10.48;;;30.20;1.00;;;;;;5081521;28;20183;-73
2023/06/06 09:47:48;;;;;;;12.73;10.55;;;30.30;99.90;;;;;;5080694;28;20176;-71
2023/06/06 09:50:16;;;;;;;12.05;9.52;;;30.60;1.00;;;;;;5087110;28;20219;-73
2023/06/06 09:52:42;;;;;;;10.93;9.65;;;30.80;99.90;;;;;;5082242;28;20694;-72
2023/06/06 09:55:17;;;;;;;13.55;10.63;;;30.50;99.90;;;;;;5079214;28;20215;-77
2023/06/06 09:57:44;;;;;;;14.15;10.60;;;28.80;1.00;;;;;;5084487;28;20201;-78
2023/06/06 10:00:14;;;;;;;18.58;10.55;;;29.10;1.00;;;;;;5083036;28;20179;-79
2023/06/06 10:02:43;;;;;;;13.70;9.77;;;30.30;1.00;;;;;;5081415;28;20528;-81
2023/06/06 10:05:12;;;;;;;18.83;11.90;;;30.50;1.00;;;;;;5078479;28;20248;-78
2023/06/06 10:07:41;;;;;;;11.23;10.02;;;29.40;1.00;;;;;;5079534;28;20188;-79
2023/06/06 10:10:10;;;;;;;12.60;10.38;;;28.90;1.00;;;;;;5078515;28;20226;-79
2023/06/06 10:12:37;;;;;;;12.50;10.23;;;29.40;1.00;;;;;;5082865;28;20236;-79
2023/06/06 10:15:05;;;;;;;14.07;10.02;;;29.30;1.00;;;;;;5085717;28;20266;-80
2023/06/06 10:17:34;;;;;;;11.52;10.32;;;29.90;1.00;;;;;;5074402;28;20729;-75
2023/06/06 10:20:06;;;;;;;16.85;11.88;;;30.00;1.00;;;;;;5088757;28;21234;-76
2023/06/06 10:22:38;;;;;;;14.18;10.48;;;29.00;1.00;;;;;;5078407;28;20180;-74
2023/06/06 10:25:12;;;;;;;11.23;9.57;;;29.20;1.00;;;;;;5085825;28;20679;-77
2023/06/06 10:27:52;;;;;;;13.00;11.48;;;28.70;1.00;;;;;;5077288;28;20185;-74
2023/06/06 10:30:36;;;;;;;12.15;10.60;;;28.00;99.90;;;;;;5083616;28;20203;-72
2023/06/06 10:35:58;;;;;;;12.88;9.55;;;27.20;9.40;;;;;;5126183;27;20648;-75
2023/06/06 10:38:26;;;;;;;14.55;10.85;;;27.70;99.90;;;;;;5098669;28;20200;-74
2023/06/06 10:40:59;;;;;;;16.23;10.45;;;28.50;99.90;;;;;;5073684;28;20186;-78
2023/06/06 10:43:34;;;;;;;14.05;10.38;;;28.30;34.80;;;;;;5090961;28;20242;-75
2023/06/06 10:46:02;;;;;;;15.13;9.52;;;28.70;96.40;;;;;;5085977;28;20270;-76
2023/06/06 10:48:41;;;;;;;13.82;9.00;;;29.60;1.00;;;;;;5085417;28;20190;-78
2023/06/06 10:51:24;;;;;;;17.45;9.38;;;30.50;1.00;;;;;;5092561;28;20204;-75
2023/06/06 10:54:15;;;;;;;14.05;9.38;;;31.00;99.90;;;;;;5060144;28;20237;-76
2023/06/06 10:56:45;;;;;;;12.82;9.98;;;30.60;99.90;;;;;;5067087;28;20180;-75
2023/06/06 10:59:11;;;;;;;14.90;10.35;;;30.80;99.90;;;;;;5066301;28;20176;-75
2023/06/06 11:01:40;;;;;;;14.32;9.82;;;30.60;99.90;;;;;;5083188;28;20183;-76
2023/06/06 11:04:25;;;;;;;10.48;9.13;;;30.80;99.90;;;;;;5084720;28;20172;-77
2023/06/06 11:06:52;;;;;;;14.27;10.20;;;31.90;99.90;;;;;;5086775;28;20172;-75
2023/06/06 11:09:24;;;;;;;12.75;10.18;;;29.90;99.90;;;;;;5083450;28;20226;-72
2023/06/06 11:12:11;;;;;;;14.13;10.10;;;29.20;1.00;;;;;;5067792;28;20245;-73
2023/06/06 11:14:58;;;;;;;14.70;9.70;;;28.30;1.00;;;;;;5088436;28;20210;-71
2023/06/06 11:17:29;;;;;;;15.15;9.00;;;28.10;99.90;;;;;;5083394;28;20172;-72
2023/06/06 11:19:56;;;;;;;12.60;9.18;;;27.30;1.00;;;;;;5085794;28;20172;-76
2023/06/06 11:22:26;;;;;;;16.50;9.48;;;28.20;99.90;;;;;;5066427;28;20175;-73
2023/06/06 11:24:55;;;;;;;11.77;9.73;;;28.60;97.50;;;;;;5084640;28;20263;-75
2023/06/06 11:27:21;;;;;;;11.35;9.63;;;28.90;1.00;;;;;;5083441;28;20172;-73
2023/06/06 11:29:47;;;;;;;12.75;10.30;;;27.90;99.90;;;;;;5086616;28;20188;-75
2023/06/06 11:32:14;;;;;;;16.20;9.57;;;27.70;1.00;;;;;;5085137;28;20171;-74
2023/06/06 11:34:40;;;;;;;10.43;9.25;;;28.20;99.90;;;;;;5084979;28;20262;-73
2023/06/06 11:37:07;;;;;;;11.90;9.00;;;27.30;1.00;;;;;;5065560;28;20176;-73
2023/06/06 11:39:33;;;;;;;18.73;8.98;;;26.80;35.70;;;;;;5090317;28;20204;-73
2023/06/06 11:42:00;;;;;;;14.48;9.65;;;26.60;99.90;;;;;;5084199;28;20263;-75
2023/06/06 11:44:35;;;;;;;12.70;8.93;;;25.80;99.90;;;;;;5083394;28;20172;-76
2023/06/06 11:47:02;;;;;;;14.70;8.75;;;25.10;1.00;;;;;;5072327;28;20211;-78
2023/06/06 11:49:29;;;;;;;11.25;8.60;;;25.50;99.90;;;;;;5082117;28;20673;-80
2023/06/06 11:52:00;;;;;;;10.82;8.30;;;25.40;99.90;;;;;;5067071;28;20279;-77
2023/06/06 11:54:27;;;;;;;11.73;9.23;;;25.40;1.00;;;;;;5068436;28;20554;-78
2023/06/06 11:56:59;;;;;;;15.77;8.57;;;24.60;99.90;;;;;;5069156;28;20204;-77
2023/06/06 11:59:26;;;;;;;11.57;9.10;;;24.70;99.90;;;;;;5054183;28;20578;-75
2023/06/06 12:01:53;;;;;;;13.77;9.60;;;24.90;58.70;;;;;;5027012;28;20211;-76
2023/06/06 12:04:23;;;;;;;17.67;8.98;;;24.90;1.00;;;;;;5063314;28;20924;-79
2023/06/06 12:06:52;;;;;;;13.98;9.20;;;24.80;1.00;;;;;;5062848;28;20259;-74
2023/06/06 12:09:19;;;;;;;9.70;8.80;;;25.30;1.00;;;;;;5045883;28;20180;-75
2023/06/06 12:11:55;;;;;;;10.50;8.70;;;25.20;99.90;;;;;;5064460;28;20227;-76
2023/06/06 12:14:25;;;;;;;12.95;7.95;;;24.60;1.00;;;;;;5048636;28;20203;-75
2023/06/06 12:16:52;;;;;;;11.40;7.28;;;24.90;77.80;;;;;;5050217;28;20178;-77
2023/06/06 12:19:19;;;;;;;10.68;8.27;;;25.30;3.00;;;;;;5068040;28;20185;-76
2023/06/06 12:21:49;;;;;;;21.40;7.93;;;25.10;1.00;;;;;;5052194;28;20640;-73
2023/06/06 12:24:22;;;;;;;12.75;8.00;;;25.70;1.00;;;;;;5070050;28;20176;-75
2023/06/06 12:27:02;;;;;;;12.02;9.50;;;26.20;1.00;;;;;;5064575;28;20587;-77
2023/06/06 12:29:33;;;;;;;12.25;7.90;;;25.40;99.90;;;;;;5046034;28;20184;-75
2023/06/06 12:32:29;;;;;;;12.82;8.32;;;25.50;99.90;;;;;;5061081;28;20193;-70
2023/06/06 12:35:01;;;;;;;12.73;9.65;;;25.70;1.00;;;;;;5027908;28;20253;-77
2023/06/06 12:37:41;;;;;;;14.27;8.15;;;25.00;99.90;;;;;;5024245;28;20174;-80
2023/06/06 12:40:27;;;;;;;7.85;6.65;;;24.60;1.00;;;;;;5021899;28;20189;-78
2023/06/06 12:42:56;;;;;;;9.32;8.32;;;24.70;59.80;;;;;;5026250;28;20189;-75